createdAt,value
2019-02-20T00:12:00.444Z,79.28
2019-02-20T00:35:24.832Z,79.56
2019-02-20T00:53:46.797Z,80.49
2019-02-20T01:34:32.439Z,82.29
2019-02-20T01:39:43.692Z,82.33
2019-02-20T01:44:52.961Z,81.98
2019-02-20T01:50:02.636Z,82.54
2019-02-20T01:55:07.539Z,82.95
2019-02-20T02:00:16.209Z,82.98
2019-02-20T02:05:26.979Z,82.93
2019-02-20T02:10:42.363Z,83.13
2019-02-20T02:15:40.975Z,83.44
2019-02-20T02:20:43.659Z,83.28
2019-02-20T02:25:48.428Z,84.10
2019-02-20T02:30:55.806Z,84.04
2019-02-20T02:36:12.102Z,83.84
2019-02-20T02:41:15.660Z,84.44
2019-02-20T02:46:24.169Z,83.65
2019-02-20T02:51:32.016Z,84.48
2019-02-20T02:56:34.854Z,84.49
2019-02-20T03:01:41.184Z,84.09
2019-02-20T03:06:43.793Z,83.80
2019-02-20T03:11:50.006Z,85.25
2019-02-20T03:17:01.979Z,84.71
2019-02-20T03:22:06.567Z,85.28
2019-02-20T03:27:09.359Z,84.34
2019-02-20T03:32:17.125Z,85.33
2019-02-20T03:37:22.434Z,85.16
2019-02-20T03:42:31.277Z,85.82
2019-02-20T03:47:34.633Z,85.84
2019-02-20T03:52:46.107Z,86.51
2019-02-20T03:57:51.869Z,86.15
2019-02-20T04:02:55.933Z,86.62
2019-02-20T04:08:05.563Z,87.09
2019-02-20T04:13:17.513Z,87.03
2019-02-20T04:18:20.187Z,87.00
2019-02-20T04:23:26.199Z,87.17
2019-02-20T04:28:28.535Z,86.92
2019-02-20T04:33:31.073Z,87.08
2019-02-20T04:38:34.447Z,86.92
2019-02-20T04:43:49.061Z,87.15
2019-02-20T04:50:09.633Z,87.61
2019-02-20T05:02:10.992Z,87.79
2019-02-20T05:13:48.912Z,86.99
2019-02-20T05:19:16.660Z,87.33
2019-02-20T05:24:24.725Z,87.18
2019-02-20T05:29:23.481Z,86.64
2019-02-20T05:34:36.709Z,87.55
2019-02-20T05:39:47.313Z,88.03
2019-02-20T05:44:53.262Z,88.04
2019-02-20T05:51:01.369Z,87.63
2019-02-20T05:56:13.019Z,87.94
2019-02-20T06:01:31.692Z,87.62
2019-02-20T06:07:21.317Z,87.75
2019-02-20T06:12:54.466Z,88.28
2019-02-20T06:18:27.529Z,88.67
2019-02-20T06:23:50.732Z,88.83
2019-02-20T06:29:47.080Z,88.90
2019-02-20T06:41:50.655Z,88.68
2019-02-20T06:46:53.459Z,88.61
2019-02-20T06:51:56.278Z,88.78
2019-02-20T06:56:59.485Z,88.14
2019-02-20T07:02:02.777Z,87.91
2019-02-20T07:19:16.759Z,88.69
2019-02-20T07:25:18.569Z,88.20
2019-02-20T07:43:42.518Z,86.69
2019-02-20T07:49:34.268Z,86.21
2019-02-20T07:56:03.610Z,85.86
2019-02-20T08:02:57.334Z,85.76
2019-02-20T08:12:56.266Z,85.70
2019-02-20T08:37:11.052Z,86.36
2019-02-20T08:43:03.298Z,85.17
2019-02-20T08:48:36.620Z,85.47
2019-02-20T11:30:08.090Z,72.51
2019-02-20T11:35:30.140Z,70.87
2019-02-20T14:20:54.960Z,56.80
2019-02-20T16:37:12.205Z,63.34
